Latest Coastal Weather Observations for Dum In Mirrie

IDD60701

Issued at 2:21 am CST Friday 28 April 2017 (issued every 10 minutes, with the page automatically refreshed every 10 minutes)

About coastal observations | Map of coastal stations | Coastal observations for NT | Marine services | Other Formats
Station Details ID: 014277 Name: DUM IN MIRRIE AIRSTRIP Lat: -12.63 Lon: 130.37 Height: 3.5 m
Data from the previous 72 hours. | See also: Recent months at Dum In Mirrie
Date/Time
CST
Temp
°C
Wind Pressure Rain since
9am
mm
Weather Cloud Vis
km
Sea
Height
m
Swell
Dir  Spd
kts
Gust
kts
hPa Trend Height
m
Period
s
Dir
28/02:00am 23.5 ESE 3 6 1010.5 - 0.0 - - - - - - -
28/01:30am 23.7 ESE 4 7 1010.2 - 0.0 - - - - - - -
28/01:00am 23.7 ESE 4 6 1010.4 - 0.0 - - - - - - -
28/12:30am 24.1 ESE 7 13 1010.8 - 0.0 - - - - - - -
28/12:00am 24.5 ESE 8 13 1010.7 - 0.0 - - - - - - -
 
Date/Time
CST
Temp
°C
Wind Pressure Rain since
9am
mm
Weather Cloud Vis
km
Sea
Height
m
Swell
Dir  Spd
kts
Gust
kts
hPa Trend Height
m
Period
s
Dir
27/11:30pm 24.8 E 8 13 1011.3 - 0.0 - - - - - - -
27/11:00pm 25.6 ESE 9 15 1010.9 - 0.0 - - - - - - -
27/10:30pm 25.7 ESE 11 18 1011.1 - 0.0 - - - - - - -
27/10:00pm 25.6 E 10 17 1011.1 - 0.0 - - - - - - -
27/09:30pm 25.6 ESE 10 16 1011.1 - 0.0 - - - - - - -
27/09:00pm 25.8 E 10 16 1010.7 - 0.0 - - - - - - -
27/08:30pm 25.9 ESE 11 19 1010.3 - 0.0 - - - - - - -
27/08:00pm 25.1 ESE 5 8 1010.0 - 0.0 - - - - - - -
27/07:30pm 24.9 ESE 3 6 1009.9 - 0.0 - - - - - - -
27/07:00pm 24.5 S 3 7 1009.3 - 0.0 - - - - - - -
27/06:30pm 24.7 CALM 0 0 1010.1 - 0.0 - - - - - - -
27/06:00pm 24.6 S 1 3 1009.8 - 0.0 - - - - - - -
27/05:30pm 24.5 SSE 1 4 1008.9 - 0.0 - - - - - - -
27/05:00pm 24.4 SSE 1 4 1008.7 - 0.0 - - - - - - -
27/04:30pm 24.6 SSE 1 4 1008.8 - 0.0 - - - - - - -
27/04:00pm 24.7 SSE 3 5 1008.2 - 0.0 - - - - - - -
27/03:30pm 24.7 SE 2 5 1008.1 - 0.0 - - - - - - -
27/03:00pm 25.2 ENE 1 2 1009.0 - 0.0 - - - - - - -
27/02:30pm 25.3 ESE 3 5 1009.2 - 0.0 - - - - - - -
27/02:00pm 25.1 ESE 1 3 1009.3 - 0.0 - - - - - - -
27/01:30pm 25.0 E 2 3 1009.6 - 0.0 - - - - - - -
27/01:00pm 24.8 SE 2 4 1009.6 - 0.0 - - - - - - -
27/12:30pm 24.8 SSE 3 6 1009.9 - 0.0 - - - - - - -
27/12:00pm 25.1 SE 2 5 1010.8 - 0.0 - - - - - - -
27/11:30am 25.2 SE 2 6 1011.1 - 0.0 - - - - - - -
27/11:00am 25.4 SE 3 9 1011.2 - 0.0 - - - - - - -
27/10:30am 26.0 SE 4 9 1012.0 - 0.0 - - - - - - -
27/10:00am 26.1 SSE 4 9 1011.5 - 0.0 - - - - - - -
27/09:30am 26.2 SE 3 7 1011.9 - 0.0 - - - - - - -
27/09:00am 26.3 SE 4 7 1011.3 - 0.0 - - - - - - -
27/08:30am 26.1 SE 5 9 1010.8 - 0.0 - - - - - - -
27/08:00am 26.0 SE 4 7 1010.6 - 0.0 - - - - - - -
27/07:30am 26.0 SE 4 8 1010.1 - 0.0 - - - - - - -
27/07:00am 26.0 ESE 5 7 1009.9 - 0.0 - - - - - - -
27/06:30am 25.8 SE 3 6 1009.4 - 0.0 - - - - - - -
27/06:00am 26.4 SE 4 8 1009.0 - 0.0 - - - - - - -
27/05:30am 26.4 ESE 6 8 1008.8 - 0.0 - - - - - - -
27/05:00am 26.0 E 6 9 1009.0 - 0.0 - - - - - - -
27/04:30am 26.2 ESE 6 11 1008.8 - 0.0 - - - - - - -
27/04:00am 26.1 ESE 7 11 1009.3 - 0.0 - - - - - - -
27/03:30am 26.8 E 6 10 1009.3 - 0.0 - - - - - - -
27/03:00am 27.2 E 5 9 1009.2 - 0.0 - - - - - - -
27/02:30am 27.3 E 4 7 1009.1 - 0.0 - - - - - - -
27/02:00am 27.4 E 6 11 1009.2 - 0.0 - - - - - - -
27/01:30am 27.6 E 6 10 1009.3 - 0.0 - - - - - - -
27/01:00am 26.9 E 2 5 1009.4 - 0.0 - - - - - - -
27/12:30am 26.9 ESE 1 2 1009.6 - 0.0 - - - - - - -
27/12:00am 26.8 ESE 1 2 1009.8 - 0.0 - - - - - - -
 
Date/Time
CST
Temp
°C
Wind Pressure Rain since
9am
mm
Weather Cloud Vis
km
Sea
Height
m
Swell
Dir  Spd
kts
Gust
kts
hPa Trend Height
m
Period
s
Dir
26/11:30pm 26.9 CALM 0 1 1009.8 - 0.0 - - - - - - -
26/11:00pm 26.7 ESE 2 3 1009.9 - 0.0 - - - - - - -
26/10:30pm 27.1 E 1 3 1009.6 - 0.0 - - - - - - -
26/10:00pm 27.5 ESE 2 3 1009.5 - 0.0 - - - - - - -
26/09:30pm 27.9 E 2 3 1009.5 - 0.0 - - - - - - -
26/09:00pm 28.2 ENE 2 5 1009.6 - 0.0 - - - - - - -
26/08:30pm 28.3 ENE 3 6 1009.4 - 0.0 - - - - - - -
26/08:00pm 28.1 ENE 3 5 1009.3 - 0.0 - - - - - - -
26/07:30pm 27.5 ENE 2 3 1009.2 - 0.0 - - - - - - -
26/07:00pm 27.1 ENE 1 3 1008.9 - 0.0 - - - - - - -
26/06:30pm 28.0 CALM 0 0 1008.7 - 0.0 - - - - - - -
26/06:00pm 28.9 CALM 0 0 1008.2 - 0.0 - - - - - - -
26/05:30pm 29.4 E 2 3 1008.0 - 0.0 - - - - - - -
26/05:00pm 29.7 E 3 5 1007.9 - 0.0 - - - - - - -
26/04:30pm 30.0 E 3 5 1007.6 - 0.0 - - - - - - -
26/04:00pm 30.1 E 3 5 1007.4 - 0.0 - - - - - - -
26/03:30pm 30.6 ESE 4 8 1007.4 - 0.0 - - - - - - -
26/03:00pm 30.9 E 5 9 1007.5 - 0.0 - - - - - - -
26/02:30pm 31.1 E 5 9 1007.7 - 0.0 - - - - - - -
26/02:00pm 30.8 E 6 10 1008.4 - 0.0 - - - - - - -
26/01:30pm 30.9 E 6 10 1008.8 - 0.0 - - - - - - -
26/01:00pm 30.7 E 7 11 1008.9 - 0.0 - - - - - - -
26/12:30pm 30.4 E 6 10 1009.6 - 0.0 - - - - - - -
26/12:00pm 30.0 ESE 5 9 1010.1 - 0.0 - - - - - - -
26/11:30am 29.4 E 5 8 1010.5 - 0.0 - - - - - - -
26/11:00am 29.2 ESE 5 8 1011.0 - 0.0 - - - - - - -
26/10:30am 28.5 ESE 4 9 1011.1 - 0.0 - - - - - - -
26/10:00am 27.8 E 3 6 1011.4 - 0.0 - - - - - - -
26/09:30am 27.6 E 4 7 1011.3 - 0.0 - - - - - - -
26/09:00am 27.0 ESE 3 5 1010.8 - 0.0 - - - - - - -
26/08:30am 26.3 SE 2 5 1010.5 - 0.0 - - - - - - -
26/08:00am 26.2 SE 2 4 1010.3 - 0.0 - - - - - - -
26/07:30am 25.7 ESE 3 5 1009.9 - 0.0 - - - - - - -
26/07:00am 25.7 ESE 3 6 1009.4 - 0.0 - - - - - - -
26/06:30am 25.1 ESE 3 5 1009.3 - 0.0 - - - - - - -
26/06:00am 25.3 CALM 0 0 1009.4 - 0.0 - - - - - - -
26/05:30am 25.5 SE 1 2 1009.2 - 0.0 - - - - - - -
26/05:00am 24.3 CALM 0 1 1009.0 - 0.0 - - - - - - -
26/04:30am 23.8 CALM 0 0 1008.9 - 0.0 - - - - - - -
26/04:00am 24.1 CALM 0 0 1008.7 - 0.0 - - - - - - -
26/03:30am 24.2 CALM 0 0 1008.6 - 0.0 - - - - - - -
26/03:00am 24.4 CALM 0 0 1008.8 - 0.0 - - - - - - -
26/02:30am 24.3 CALM 0 0 1009.2 - 0.0 - - - - - - -
26/02:00am 24.2 CALM 0 0 1009.4 - 0.0 - - - - - - -
26/01:30am 24.6 CALM 0 0 1009.7 - 0.0 - - - - - - -
26/01:00am 25.0 CALM 0 0 1010.2 - 0.0 - - - - - - -
26/12:30am 25.1 CALM 0 0 1010.5 - 0.0 - - - - - - -
26/12:00am 25.2 CALM 0 0 1010.8 - 0.0 - - - - - - -
 
Date/Time
CST
Temp
°C
Wind Pressure Rain since
9am
mm
Weather Cloud Vis
km
Sea
Height
m
Swell
Dir  Spd
kts
Gust
kts
hPa Trend Height
m
Period
s
Dir
25/11:30pm 25.4 CALM 0 0 1010.8 - 0.0 - - - - - - -
25/11:00pm 25.5 CALM 0 0 1011.1 - 0.0 - - - - - - -
25/10:30pm 25.4 CALM 0 0 1011.3 - 0.0 - - - - - - -
25/10:00pm 25.4 CALM 0 0 1011.2 - 0.0 - - - - - - -
25/09:30pm 25.6 CALM 0 0 1011.0 - 0.0 - - - - - - -
25/09:00pm 25.9 CALM 0 0 1010.8 - 0.0 - - - - - - -
25/08:30pm 26.2 CALM 0 0 1010.4 - 0.0 - - - - - - -
25/08:00pm 26.6 CALM 0 0 1009.9 - 0.0 - - - - - - -
25/07:30pm 27.4 CALM 0 0 1009.5 - 0.0 - - - - - - -
25/07:00pm 28.1 N 1 2 1009.3 - 0.0 - - - - - - -
25/06:30pm 29.0 CALM 0 1 1009.1 - 0.0 - - - - - - -
25/06:00pm 29.7 WNW 2 3 1008.8 - 0.0 - - - - - - -
25/05:30pm 29.7 WNW 3 5 1008.6 - 0.0 - - - - - - -
25/05:00pm 29.9 WNW 2 4 1008.2 - 0.0 - - - - - - -
25/04:30pm 31.2 WNW 3 5 1008.1 - 0.0 - - - - - - -
25/04:00pm 30.9 WNW 3 5 1007.9 - 0.0 - - - - - - -
25/03:30pm 31.6 NW 3 5 1007.9 - 0.0 - - - - - - -
25/03:00pm 31.1 WNW 4 6 1008.2 - 0.0 - - - - - - -
25/02:30pm 30.8 NW 4 7 1008.4 - 0.0 - - - - - - -
25/02:00pm 30.4 N 4 7 1008.8 - 0.0 - - - - - - -
25/01:30pm 31.2 N 3 7 1009.3 - 0.0 - - - - - - -
25/01:00pm 33.2 NE 2 5 1009.6 - 0.0 - - - - - - -
25/12:30pm 33.0 ENE 4 8 1010.1 - 0.0 - - - - - - -
25/12:00pm 32.7 ENE 4 7 1010.6 - 0.0 - - - - - - -
25/11:30am 32.0 E 4 8 1011.2 - 0.0 - - - - - - -
25/11:00am 32.2 NE 4 7 1011.6 - 0.0 - - - - - - -
25/10:30am 31.5 ENE 4 7 1011.8 - 0.0 - - - - - - -
25/10:00am 31.3 ENE 3 6 1011.7 - 0.0 - - - - - - -
25/09:30am 31.1 NE 2 5 1011.4 - 0.0 - - - - - - -
25/09:00am 29.7 E 2 3 1011.1 - 0.0 - - - - - - -
25/08:30am 27.5 CALM 0 0 1010.9 - 0.0 - - - - - - -
25/08:00am 26.3 CALM 0 0 1010.5 - 0.0 - - - - - - -
25/07:30am 25.5 CALM 0 0 1010.3 - 0.0 - - - - - - -
25/07:00am 24.4 CALM 0 0 1009.9 - 0.0 - - - - - - -
25/06:30am 24.4 CALM 0 0 1009.7 - 0.0 - - - - - - -
25/06:00am 24.5 CALM 0 2 1009.5 - 0.0 - - - - - - -
25/05:30am 24.2 ENE 1 2 1009.3 - 0.0 - - - - - - -
25/05:00am 24.3 NE 2 2 1009.4 - 0.0 - - - - - - -
25/04:30am 24.9 E 1 2 1009.4 - 0.0 - - - - - - -
25/04:00am 25.3 CALM 0 0 1009.4 - 0.0 - - - - - - -
25/03:30am 25.9 CALM 0 0 1009.4 - 0.0 - - - - - - -
25/03:00am 27.6 CALM 0 3 1009.4 - 0.0 - - - - - - -
25/02:30am 26.8 W 2 4 1009.7 - 0.0 - - - - - - -

Other Formats:

Comma delimited format used in spreadsheet applications
http://www.bom.gov.au/fwo/IDD60701/IDD60701.94116.axf

JavaScript Object Notation format (JSON) in row-major order
http://www.bom.gov.au/fwo/IDD60701/IDD60701.94116.json